createdAt,value
2022-12-24T00:00:17.320Z,985.15
2022-12-24T00:01:17.260Z,985.16
2022-12-24T00:02:17.311Z,985.17
2022-12-24T00:03:17.392Z,985.20
2022-12-24T00:04:17.251Z,985.12
2022-12-24T00:05:17.199Z,985.15
2022-12-24T00:06:17.213Z,985.15
2022-12-24T00:07:17.175Z,985.12
2022-12-24T00:08:17.161Z,985.23
2022-12-24T00:09:17.177Z,985.19
2022-12-24T00:10:17.144Z,985.23
2022-12-24T00:11:17.139Z,985.23
2022-12-24T00:12:17.146Z,985.24
2022-12-24T00:13:17.138Z,985.27
2022-12-24T00:14:17.103Z,985.20
2022-12-24T00:15:17.090Z,985.28
2022-12-24T00:16:17.131Z,985.20
2022-12-24T00:17:17.141Z,985.28
2022-12-24T00:18:17.072Z,985.29
2022-12-24T00:19:17.043Z,985.21
2022-12-24T00:20:17.048Z,985.27
2022-12-24T00:21:17.037Z,985.28
2022-12-24T00:22:17.013Z,985.25
2022-12-24T00:23:17.004Z,985.29
2022-12-24T00:24:16.993Z,985.28
2022-12-24T00:25:17.001Z,985.27
2022-12-24T00:26:16.965Z,985.34
2022-12-24T00:27:16.955Z,985.27
2022-12-24T00:28:17.023Z,985.29
2022-12-24T00:29:16.941Z,985.31
2022-12-24T00:30:16.932Z,985.31
2022-12-24T00:31:17.089Z,985.41
2022-12-24T00:32:16.893Z,985.38
2022-12-24T00:33:20.943Z,985.46
2022-12-24T00:34:16.918Z,985.43
2022-12-24T00:35:16.876Z,985.50
2022-12-24T00:36:16.857Z,985.48
2022-12-24T00:37:16.855Z,985.50
2022-12-24T00:38:16.861Z,985.52
2022-12-24T00:39:16.821Z,985.48
2022-12-24T00:40:16.805Z,985.56
2022-12-24T00:41:16.820Z,985.54
2022-12-24T00:42:16.789Z,985.59
2022-12-24T00:43:16.785Z,985.52
2022-12-24T00:44:16.834Z,985.54
2022-12-24T00:45:16.761Z,985.55
2022-12-24T00:46:16.804Z,985.54
2022-12-24T00:47:16.728Z,985.45
2022-12-24T00:48:16.747Z,985.52
2022-12-24T00:49:16.741Z,985.46
2022-12-24T00:50:16.693Z,985.53
2022-12-24T00:51:16.760Z,985.50
2022-12-24T00:52:16.690Z,985.54
2022-12-24T00:53:16.683Z,985.59
2022-12-24T00:54:16.663Z,985.60
2022-12-24T00:55:16.641Z,985.66
2022-12-24T00:56:16.638Z,985.67
2022-12-24T00:57:16.643Z,985.68
2022-12-24T00:58:16.606Z,985.68
2022-12-24T00:59:16.620Z,985.76
2022-12-24T01:00:16.620Z,985.71
2022-12-24T01:01:16.710Z,985.72
2022-12-24T01:02:16.891Z,985.73
2022-12-24T01:03:16.629Z,985.77
2022-12-24T01:04:16.555Z,985.79
2022-12-24T01:05:16.573Z,985.73
2022-12-24T01:06:16.516Z,985.72
2022-12-24T01:07:16.678Z,985.80
2022-12-24T01:08:16.487Z,985.80
2022-12-24T01:09:16.680Z,985.81
2022-12-24T01:10:16.472Z,985.82
2022-12-24T01:11:16.510Z,985.91
2022-12-24T01:12:16.447Z,985.89
2022-12-24T01:13:16.580Z,985.91
2022-12-24T01:14:16.505Z,985.89
2022-12-24T01:15:16.435Z,985.97
2022-12-24T01:16:16.554Z,985.97
2022-12-24T01:17:16.399Z,986.08
2022-12-24T01:18:16.404Z,986.10
2022-12-24T01:19:16.370Z,986.06
2022-12-24T01:20:16.367Z,986.07
2022-12-24T01:21:16.385Z,986.16
2022-12-24T01:22:16.341Z,986.09
2022-12-24T01:23:16.335Z,986.21
2022-12-24T01:24:16.312Z,986.18
2022-12-24T01:25:16.323Z,986.24
2022-12-24T01:26:16.306Z,986.25
2022-12-24T01:27:16.278Z,986.19
2022-12-24T01:28:16.269Z,986.22
2022-12-24T01:29:16.396Z,986.25
2022-12-24T01:30:16.267Z,986.25
2022-12-24T01:31:16.309Z,986.26
2022-12-24T01:32:16.243Z,986.26
2022-12-24T01:33:16.214Z,986.30
2022-12-24T01:34:16.211Z,986.27
2022-12-24T01:35:16.220Z,986.29
2022-12-24T01:36:16.201Z,986.37
2022-12-24T01:37:16.167Z,986.40
2022-12-24T01:38:16.158Z,986.48
2022-12-24T01:39:16.159Z,986.44
2022-12-24T01:40:16.164Z,986.52
2022-12-24T01:41:16.124Z,986.46
2022-12-24T01:42:16.111Z,986.48
2022-12-24T01:43:16.108Z,986.49
2022-12-24T01:44:16.097Z,986.42
2022-12-24T01:45:16.081Z,986.44
2022-12-24T01:46:16.219Z,986.55
2022-12-24T01:47:16.058Z,986.56
2022-12-24T01:48:16.064Z,986.65
2022-12-24T01:49:16.070Z,986.52
2022-12-24T01:50:16.021Z,986.55
2022-12-24T01:51:16.042Z,986.62
2022-12-24T01:52:16.010Z,986.61
2022-12-24T01:53:15.991Z,986.61
2022-12-24T01:54:15.999Z,986.61
2022-12-24T01:55:16.028Z,986.58
2022-12-24T01:56:15.979Z,986.57
2022-12-24T01:57:15.961Z,986.61
2022-12-24T01:58:15.929Z,986.63
2022-12-24T01:59:15.922Z,986.72
2022-12-24T02:00:15.956Z,986.67
2022-12-24T02:01:16.215Z,986.72
2022-12-24T02:02:16.029Z,986.80
2022-12-24T02:03:15.928Z,986.79
2022-12-24T02:04:15.882Z,986.83
2022-12-24T02:05:15.914Z,986.81
2022-12-24T02:06:15.861Z,986.80
2022-12-24T02:07:15.857Z,986.87
2022-12-24T02:08:15.870Z,986.92
2022-12-24T02:09:15.908Z,986.90
2022-12-24T02:10:15.805Z,986.98
2022-12-24T02:11:15.833Z,986.94
2022-12-24T02:12:15.774Z,986.92
2022-12-24T02:13:15.767Z,986.94
2022-12-24T02:14:15.765Z,986.89
2022-12-24T02:15:15.769Z,986.96
2022-12-24T02:16:15.839Z,986.99
2022-12-24T02:17:15.757Z,987.00
2022-12-24T02:18:15.765Z,987.04
2022-12-24T02:19:15.709Z,987.06
2022-12-24T02:20:15.699Z,987.06
2022-12-24T02:21:15.717Z,987.06
2022-12-24T02:22:15.670Z,987.10
2022-12-24T02:23:15.726Z,987.06
2022-12-24T02:24:15.641Z,987.14
2022-12-24T02:25:15.659Z,987.17
2022-12-24T02:26:15.637Z,987.15
2022-12-24T02:27:15.613Z,987.20
2022-12-24T02:28:15.606Z,987.21
2022-12-24T02:29:15.596Z,987.25
2022-12-24T02:30:15.584Z,987.20
2022-12-24T02:31:15.624Z,987.19
2022-12-24T02:32:15.555Z,987.25
2022-12-24T02:33:15.556Z,987.25
2022-12-24T02:34:15.533Z,987.29
2022-12-24T02:35:15.525Z,987.30
2022-12-24T02:36:15.532Z,987.30
2022-12-24T02:37:15.501Z,987.26
2022-12-24T02:38:15.501Z,987.29
2022-12-24T02:39:15.471Z,987.38
2022-12-24T02:40:16.852Z,987.39
2022-12-24T02:41:15.471Z,987.36
2022-12-24T02:42:15.456Z,987.47
2022-12-24T02:43:15.588Z,987.36
2022-12-24T02:44:15.426Z,987.37
2022-12-24T02:45:15.403Z,987.40
2022-12-24T02:46:15.440Z,987.43
2022-12-24T02:47:15.397Z,987.49
2022-12-24T02:48:15.378Z,987.50
2022-12-24T02:49:15.363Z,987.47
2022-12-24T02:50:15.357Z,987.58
2022-12-24T02:51:15.368Z,987.55
2022-12-24T02:52:15.410Z,987.58
2022-12-24T02:53:15.330Z,987.54
2022-12-24T02:54:15.309Z,987.55
2022-12-24T02:55:15.285Z,987.58
2022-12-24T02:56:15.300Z,987.50
2022-12-24T02:57:15.273Z,987.58
2022-12-24T02:58:15.287Z,987.59
2022-12-24T02:59:15.269Z,987.60
2022-12-24T03:00:15.236Z,987.55
2022-12-24T03:01:15.472Z,987.60
2022-12-24T03:02:15.391Z,987.59
2022-12-24T03:03:15.309Z,987.61
2022-12-24T03:04:15.205Z,987.69
2022-12-24T03:05:15.256Z,987.70
2022-12-24T03:06:15.166Z,987.73
2022-12-24T03:07:15.243Z,987.77
2022-12-24T03:08:15.205Z,987.80
2022-12-24T03:09:15.160Z,987.76
2022-12-24T03:10:15.127Z,987.80
2022-12-24T03:11:15.137Z,987.81
2022-12-24T03:12:15.094Z,987.81
2022-12-24T03:13:15.093Z,987.83
2022-12-24T03:14:15.165Z,987.81
2022-12-24T03:15:15.177Z,987.86
2022-12-24T03:16:15.131Z,987.90
2022-12-24T03:17:15.051Z,987.91
2022-12-24T03:18:15.059Z,987.92
2022-12-24T03:19:15.018Z,987.99
2022-12-24T03:20:15.016Z,987.98
2022-12-24T03:21:15.002Z,987.96
2022-12-24T03:22:14.991Z,988.02
2022-12-24T03:23:15.007Z,988.09
2022-12-24T03:24:14.983Z,988.06
2022-12-24T03:25:15.022Z,988.15
2022-12-24T03:26:14.981Z,988.21
2022-12-24T03:27:14.941Z,988.22
2022-12-24T03:28:14.955Z,988.24
2022-12-24T03:29:14.939Z,988.21
2022-12-24T03:30:14.902Z,988.25
2022-12-24T03:31:14.924Z,988.32
2022-12-24T03:32:14.875Z,988.28
2022-12-24T03:33:14.957Z,988.24
2022-12-24T03:34:14.873Z,988.37
2022-12-24T03:35:14.845Z,988.39
2022-12-24T03:36:14.830Z,988.45
2022-12-24T03:37:14.881Z,988.46
2022-12-24T03:38:14.865Z,988.49
2022-12-24T03:39:14.919Z,988.49
2022-12-24T03:40:14.808Z,988.43
2022-12-24T03:41:14.815Z,988.52
2022-12-24T03:42:14.769Z,988.52
2022-12-24T03:43:14.756Z,988.50
2022-12-24T03:44:14.744Z,988.58
2022-12-24T03:45:14.753Z,988.61
2022-12-24T03:46:14.786Z,988.64
2022-12-24T03:47:14.731Z,988.57
2022-12-24T03:48:14.702Z,988.62
2022-12-24T03:49:14.716Z,988.64
2022-12-24T03:50:14.694Z,988.61
2022-12-24T03:51:14.661Z,988.63
2022-12-24T03:52:14.654Z,988.66
2022-12-24T03:53:14.645Z,988.59
2022-12-24T03:54:14.652Z,988.58
2022-12-24T03:55:14.621Z,988.59
2022-12-24T03:56:14.651Z,988.61
2022-12-24T03:57:14.616Z,988.60
2022-12-24T03:58:14.585Z,988.61
2022-12-24T03:59:14.641Z,988.63
2022-12-24T04:00:14.707Z,988.67
2022-12-24T04:01:14.718Z,988.72
2022-12-24T04:02:14.846Z,988.68
2022-12-24T04:03:14.706Z,988.72
2022-12-24T04:04:14.516Z,988.73
2022-12-24T04:05:14.547Z,988.72
2022-12-24T04:06:14.531Z,988.72
2022-12-24T04:07:15.018Z,988.69
2022-12-24T04:08:14.501Z,988.73
2022-12-24T04:09:14.509Z,988.79
2022-12-24T04:10:14.516Z,988.72
2022-12-24T04:11:14.524Z,988.72
2022-12-24T04:12:14.499Z,988.70
2022-12-24T04:13:14.436Z,988.70
2022-12-24T04:14:14.408Z,988.70
2022-12-24T04:15:14.521Z,988.75
2022-12-24T04:16:14.475Z,988.69
2022-12-24T04:17:14.407Z,988.70
2022-12-24T04:18:14.361Z,988.68
2022-12-24T04:19:14.409Z,988.70
2022-12-24T04:20:14.344Z,988.71
2022-12-24T04:21:14.334Z,988.73
2022-12-24T04:22:14.377Z,988.70
2022-12-24T04:23:14.330Z,988.80
2022-12-24T04:24:14.304Z,988.74
2022-12-24T04:25:14.315Z,988.76
2022-12-24T04:26:14.284Z,988.74
2022-12-24T04:27:14.320Z,988.81
2022-12-24T04:28:14.274Z,988.81
2022-12-24T04:29:14.254Z,988.79
2022-12-24T04:30:14.256Z,988.77
2022-12-24T04:31:14.261Z,988.83
2022-12-24T04:32:14.428Z,988.86
2022-12-24T04:33:15.009Z,988.83
2022-12-24T04:34:14.214Z,988.86
2022-12-24T04:35:14.333Z,988.92
2022-12-24T04:36:14.206Z,988.97
2022-12-24T04:37:14.151Z,988.91
2022-12-24T04:38:14.163Z,988.92
2022-12-24T04:39:14.156Z,988.95
2022-12-24T04:40:14.121Z,988.94
2022-12-24T04:41:20.861Z,988.94
2022-12-24T04:42:15.120Z,988.95
2022-12-24T04:43:14.119Z,988.94
2022-12-24T04:44:14.116Z,988.97
2022-12-24T04:45:14.083Z,988.96
2022-12-24T04:46:14.080Z,988.96
2022-12-24T04:47:14.052Z,989.04
2022-12-24T04:48:14.026Z,988.97
2022-12-24T04:49:14.061Z,988.98
2022-12-24T04:50:14.079Z,988.99
2022-12-24T04:51:14.007Z,989.01
2022-12-24T04:52:13.988Z,989.05
2022-12-24T04:53:14.015Z,989.05
2022-12-24T04:54:13.994Z,989.07
2022-12-24T04:55:13.952Z,989.03
2022-12-24T04:56:14.113Z,989.15
2022-12-24T04:57:13.928Z,989.16
2022-12-24T04:58:13.919Z,989.20
2022-12-24T04:59:14.096Z,989.20
2022-12-24T05:00:13.911Z,989.19
2022-12-24T05:01:14.057Z,989.23
2022-12-24T05:02:14.428Z,989.22
2022-12-24T05:03:13.969Z,989.19
2022-12-24T05:04:13.874Z,989.28
2022-12-24T05:05:13.847Z,989.30
2022-12-24T05:06:13.832Z,989.30
2022-12-24T05:07:13.822Z,989.29
2022-12-24T05:08:13.832Z,989.38
2022-12-24T05:09:13.832Z,989.45
2022-12-24T05:10:13.810Z,989.41
2022-12-24T05:11:13.774Z,989.48
2022-12-24T05:12:13.774Z,989.48
2022-12-24T05:13:13.765Z,989.56
2022-12-24T05:14:13.738Z,989.57
2022-12-24T05:15:13.753Z,989.59
2022-12-24T05:16:13.831Z,989.61
2022-12-24T05:17:13.780Z,989.60
2022-12-24T05:18:13.697Z,989.58
2022-12-24T05:19:13.718Z,989.55
2022-12-24T05:20:13.670Z,989.54
2022-12-24T05:21:13.687Z,989.60
2022-12-24T05:22:13.647Z,989.59
2022-12-24T05:23:13.675Z,989.61
2022-12-24T05:24:13.663Z,989.65
2022-12-24T05:25:13.644Z,989.67
2022-12-24T05:26:13.608Z,989.67
2022-12-24T05:27:13.602Z,989.64
2022-12-24T05:28:13.581Z,989.63
2022-12-24T05:29:13.607Z,989.65
2022-12-24T05:30:13.558Z,989.66
2022-12-24T05:31:13.649Z,989.72
2022-12-24T05:32:13.580Z,989.71
2022-12-24T05:33:13.539Z,989.72
2022-12-24T05:34:13.570Z,989.76
2022-12-24T05:35:13.505Z,989.75
2022-12-24T05:36:13.494Z,989.76
2022-12-24T05:37:13.503Z,989.80
2022-12-24T05:38:13.488Z,989.80
2022-12-24T05:39:15.915Z,989.82
2022-12-24T05:40:13.460Z,989.81
2022-12-24T05:41:13.478Z,989.83
2022-12-24T05:42:13.444Z,989.90
2022-12-24T05:43:13.414Z,989.86
2022-12-24T05:44:13.411Z,989.92
2022-12-24T05:45:13.403Z,989.94
2022-12-24T05:46:13.455Z,989.94
2022-12-24T05:47:13.390Z,989.98
2022-12-24T05:48:13.384Z,990.01
2022-12-24T05:49:13.350Z,990.06
2022-12-24T05:50:13.338Z,990.00
2022-12-24T05:51:13.324Z,989.90
2022-12-24T05:52:13.336Z,989.92
2022-12-24T05:53:13.305Z,989.86
2022-12-24T05:54:13.317Z,989.90
2022-12-24T05:55:13.297Z,989.86
2022-12-24T05:56:13.291Z,989.91
2022-12-24T05:57:13.265Z,989.93
2022-12-24T05:58:13.246Z,989.98
2022-12-24T05:59:13.263Z,989.94
2022-12-24T06:00:13.217Z,990.05
2022-12-24T06:01:13.301Z,990.06
2022-12-24T06:02:13.323Z,990.03
2022-12-24T06:03:13.206Z,990.04
2022-12-24T06:04:13.253Z,990.02
2022-12-24T06:05:13.265Z,990.04
2022-12-24T06:06:13.160Z,990.07
2022-12-24T06:07:13.174Z,990.06
2022-12-24T06:08:13.160Z,990.08
2022-12-24T06:09:13.172Z,990.05
2022-12-24T06:10:13.133Z,990.05
2022-12-24T06:11:13.112Z,990.15
2022-12-24T06:12:13.119Z,990.05
2022-12-24T06:13:13.084Z,990.18
2022-12-24T06:14:13.076Z,990.17
2022-12-24T06:15:16.210Z,990.13
2022-12-24T06:16:14.193Z,990.14
2022-12-24T06:17:13.044Z,990.15
2022-12-24T06:18:13.038Z,990.14
2022-12-24T06:19:13.036Z,990.17
2022-12-24T06:20:13.064Z,990.13
2022-12-24T06:21:13.022Z,990.17
2022-12-24T06:22:12.983Z,990.16
2022-12-24T06:23:12.972Z,990.20
2022-12-24T06:24:13.003Z,990.21
2022-12-24T06:25:12.977Z,990.18
2022-12-24T06:26:12.949Z,990.11
2022-12-24T06:27:12.975Z,990.13
2022-12-24T06:28:12.946Z,990.14
2022-12-24T06:29:12.950Z,990.16
2022-12-24T06:30:12.915Z,990.17
2022-12-24T06:31:12.928Z,990.25
2022-12-24T06:32:12.900Z,990.21
2022-12-24T06:33:12.900Z,990.22
2022-12-24T06:34:12.871Z,990.24
2022-12-24T06:35:12.845Z,990.18
2022-12-24T06:36:17.188Z,990.17
2022-12-24T06:37:13.845Z,990.19
2022-12-24T06:38:12.847Z,990.17
2022-12-24T06:39:12.805Z,990.14
2022-12-24T06:40:12.783Z,990.15
2022-12-24T06:41:12.793Z,990.13
2022-12-24T06:42:12.788Z,990.17
2022-12-24T06:43:12.782Z,990.20
2022-12-24T06:44:12.768Z,990.16
2022-12-24T06:45:12.749Z,990.20
2022-12-24T06:46:12.775Z,990.18
2022-12-24T06:47:12.749Z,990.25
2022-12-24T06:48:12.699Z,990.28
2022-12-24T06:49:12.696Z,990.27
2022-12-24T06:50:12.676Z,990.30
2022-12-24T06:51:12.671Z,990.27
2022-12-24T06:52:12.702Z,990.25
2022-12-24T06:53:12.653Z,990.23
2022-12-24T06:54:12.665Z,990.26
2022-12-24T06:55:12.633Z,990.39
2022-12-24T06:56:12.631Z,990.37
2022-12-24T06:57:12.608Z,990.44
2022-12-24T06:58:12.614Z,990.36
2022-12-24T06:59:12.596Z,990.43
2022-12-24T07:00:12.570Z,990.53
2022-12-24T07:01:12.731Z,990.52
2022-12-24T07:02:12.659Z,990.52
2022-12-24T07:03:12.527Z,990.55
2022-12-24T07:04:19.692Z,990.54
2022-12-24T07:05:13.515Z,990.53
2022-12-24T07:06:12.525Z,990.58
2022-12-24T07:07:12.489Z,990.53
2022-12-24T07:08:12.671Z,990.53
2022-12-24T07:09:12.460Z,990.58
2022-12-24T07:10:12.476Z,990.58
2022-12-24T07:11:12.627Z,990.61
2022-12-24T07:12:12.428Z,990.61
2022-12-24T07:13:12.416Z,990.62
2022-12-24T07:14:12.414Z,990.68
2022-12-24T07:15:12.478Z,990.67
2022-12-24T07:16:12.581Z,990.67
2022-12-24T07:17:12.571Z,990.73
2022-12-24T07:18:12.370Z,990.74
2022-12-24T07:19:12.380Z,990.72
2022-12-24T07:20:12.378Z,990.73
2022-12-24T07:21:12.337Z,990.70
2022-12-24T07:22:15.704Z,990.68
2022-12-24T07:23:12.337Z,990.74
2022-12-24T07:24:12.342Z,990.79
2022-12-24T07:25:12.307Z,990.79
2022-12-24T07:26:12.321Z,990.84
2022-12-24T07:27:12.283Z,990.81
2022-12-24T07:28:12.285Z,990.79
2022-12-24T07:29:12.292Z,990.82
2022-12-24T07:30:12.253Z,990.91
2022-12-24T07:31:12.381Z,990.93
2022-12-24T07:32:12.201Z,990.93
2022-12-24T07:33:12.205Z,990.93
2022-12-24T07:34:12.198Z,990.96
2022-12-24T07:35:12.180Z,990.98
2022-12-24T07:36:12.203Z,991.01
2022-12-24T07:37:12.172Z,990.99
2022-12-24T07:38:12.149Z,991.04
2022-12-24T07:39:12.143Z,991.09
2022-12-24T07:40:12.137Z,991.09
2022-12-24T07:41:12.131Z,991.06
2022-12-24T07:42:12.094Z,991.09
2022-12-24T07:43:12.090Z,991.13
2022-12-24T07:44:12.095Z,991.12
2022-12-24T07:45:12.079Z,991.09
2022-12-24T07:46:12.087Z,991.11
2022-12-24T07:47:12.107Z,991.13
2022-12-24T07:48:12.043Z,991.14
2022-12-24T07:49:12.016Z,991.15
2022-12-24T07:50:12.028Z,991.17
2022-12-24T07:51:12.004Z,991.17
2022-12-24T07:52:11.990Z,991.15
2022-12-24T07:53:11.976Z,991.18
2022-12-24T07:54:11.967Z,991.15
2022-12-24T07:55:11.980Z,991.12
2022-12-24T07:56:13.043Z,991.11
2022-12-24T07:57:11.933Z,991.14
2022-12-24T07:58:11.928Z,991.19
2022-12-24T07:59:11.934Z,991.18
2022-12-24T08:00:11.909Z,991.30
2022-12-24T08:01:11.997Z,991.25
2022-12-24T08:02:17.985Z,991.26
2022-12-24T08:03:12.955Z,991.29
2022-12-24T08:04:11.949Z,991.33
2022-12-24T08:05:11.866Z,991.34
2022-12-24T08:06:11.838Z,991.32
2022-12-24T08:07:11.829Z,991.25
2022-12-24T08:08:11.839Z,991.27
2022-12-24T08:09:11.795Z,991.30
2022-12-24T08:10:11.824Z,991.30
2022-12-24T08:11:11.785Z,991.32
2022-12-24T08:12:11.781Z,991.31
2022-12-24T08:13:11.776Z,991.26
2022-12-24T08:14:11.740Z,991.30
2022-12-24T08:15:11.741Z,991.32
2022-12-24T08:16:11.835Z,991.39
2022-12-24T08:17:11.719Z,991.42
2022-12-24T08:18:11.698Z,991.45
2022-12-24T08:19:11.705Z,991.44
2022-12-24T08:20:11.676Z,991.45
2022-12-24T08:21:11.659Z,991.45
2022-12-24T08:22:11.682Z,991.45
2022-12-24T08:23:11.646Z,991.49
2022-12-24T08:24:11.636Z,991.46
2022-12-24T08:25:11.626Z,991.45
2022-12-24T08:26:11.608Z,991.53
2022-12-24T08:27:11.611Z,991.51
2022-12-24T08:28:11.624Z,991.47
2022-12-24T08:29:11.595Z,991.56
2022-12-24T08:30:16.075Z,991.61
2022-12-24T08:31:12.599Z,991.59
2022-12-24T08:32:11.665Z,991.52
2022-12-24T08:33:11.532Z,991.59
2022-12-24T08:34:11.542Z,991.52
2022-12-24T08:35:11.520Z,991.55
2022-12-24T08:36:11.521Z,991.57
2022-12-24T08:37:11.485Z,991.55
2022-12-24T08:38:11.482Z,991.58
2022-12-24T08:39:11.515Z,991.57
2022-12-24T08:40:11.458Z,991.57
2022-12-24T08:41:11.452Z,991.51
2022-12-24T08:42:11.454Z,991.50
2022-12-24T08:43:11.416Z,991.50
2022-12-24T08:44:11.552Z,991.45
2022-12-24T08:45:11.410Z,991.41
2022-12-24T08:46:11.502Z,991.51
2022-12-24T08:47:11.419Z,991.55
2022-12-24T08:48:11.417Z,991.58
2022-12-24T08:49:11.348Z,991.61
2022-12-24T08:50:11.347Z,991.64
2022-12-24T08:51:11.342Z,991.65
2022-12-24T08:52:11.325Z,991.68
2022-12-24T08:53:11.331Z,991.70
2022-12-24T08:54:11.319Z,991.78
2022-12-24T08:55:11.290Z,991.74
2022-12-24T08:56:11.320Z,991.77
2022-12-24T08:57:11.286Z,991.81
2022-12-24T08:58:11.285Z,991.78
2022-12-24T08:59:11.252Z,991.76
2022-12-24T09:00:11.276Z,991.82
2022-12-24T09:01:11.388Z,991.81
2022-12-24T09:02:11.413Z,991.85
2022-12-24T09:03:11.265Z,991.85
2022-12-24T09:04:11.192Z,991.83
2022-12-24T09:05:11.199Z,991.87
2022-12-24T09:06:11.181Z,991.84
2022-12-24T09:07:11.218Z,991.91
2022-12-24T09:08:11.148Z,991.95
2022-12-24T09:09:12.012Z,991.91
2022-12-24T09:10:11.138Z,991.93
2022-12-24T09:11:11.114Z,991.97
2022-12-24T09:12:11.108Z,991.96
2022-12-24T09:13:11.109Z,991.99
2022-12-24T09:14:11.086Z,991.98
2022-12-24T09:15:11.070Z,992.00
2022-12-24T09:16:11.101Z,992.03
2022-12-24T09:17:11.077Z,992.01
2022-12-24T09:18:11.073Z,992.06
2022-12-24T09:19:11.025Z,992.11
2022-12-24T09:20:11.519Z,992.13
2022-12-24T09:21:11.011Z,992.18
2022-12-24T09:22:11.066Z,992.24
2022-12-24T09:23:10.973Z,992.20
2022-12-24T09:24:10.974Z,992.20
2022-12-24T09:25:10.960Z,992.21
2022-12-24T09:26:10.946Z,992.26
2022-12-24T09:27:10.952Z,992.28
2022-12-24T09:28:10.929Z,992.28
2022-12-24T09:29:10.908Z,992.24
2022-12-24T09:30:10.899Z,992.24
2022-12-24T09:31:10.887Z,992.26
2022-12-24T09:32:10.955Z,992.26
2022-12-24T09:33:10.888Z,992.30
2022-12-24T09:34:10.891Z,992.29
2022-12-24T09:35:10.854Z,992.26
2022-12-24T09:36:10.836Z,992.28
2022-12-24T09:37:10.893Z,992.31
2022-12-24T09:38:10.857Z,992.33
2022-12-24T09:39:10.811Z,992.32
2022-12-24T09:40:10.856Z,992.38
2022-12-24T09:41:10.826Z,992.39
2022-12-24T09:42:10.832Z,992.38
2022-12-24T09:43:11.524Z,992.38
2022-12-24T09:44:10.893Z,992.40
2022-12-24T09:45:10.842Z,992.46
2022-12-24T09:46:10.953Z,992.42
2022-12-24T09:47:10.918Z,992.50
2022-12-24T09:48:11.533Z,992.41
2022-12-24T09:49:12.517Z,992.45
2022-12-24T09:50:10.885Z,992.46
2022-12-24T09:51:11.517Z,992.46
2022-12-24T09:52:11.044Z,992.42
2022-12-24T09:53:10.748Z,992.45
2022-12-24T09:54:10.791Z,992.42
2022-12-24T09:55:10.930Z,992.44
2022-12-24T09:56:10.866Z,992.46
2022-12-24T09:57:10.847Z,992.52
2022-12-24T09:58:11.547Z,992.52
2022-12-24T09:59:10.887Z,992.58
2022-12-24T10:00:11.521Z,992.57
2022-12-24T10:01:11.047Z,992.57
2022-12-24T10:02:10.909Z,992.56
2022-12-24T10:03:10.846Z,992.55
2022-12-24T10:04:10.676Z,992.56
2022-12-24T10:05:10.692Z,992.56
2022-12-24T10:06:10.891Z,992.60
2022-12-24T10:07:10.829Z,992.61
2022-12-24T10:08:10.849Z,992.65
2022-12-24T10:09:10.731Z,992.65
2022-12-24T10:10:11.018Z,992.65
2022-12-24T10:11:10.444Z,992.62
2022-12-24T10:12:10.429Z,992.71
2022-12-24T10:13:10.446Z,992.72
2022-12-24T10:14:10.495Z,992.81
2022-12-24T10:15:10.389Z,992.72
2022-12-24T10:16:10.407Z,992.74
2022-12-24T10:17:10.486Z,992.77
2022-12-24T10:18:10.389Z,992.77
2022-12-24T10:19:10.368Z,992.79
2022-12-24T10:20:10.398Z,992.79
2022-12-24T10:21:10.326Z,992.74
2022-12-24T10:22:10.426Z,992.76
2022-12-24T10:23:10.300Z,992.74
2022-12-24T10:24:10.314Z,992.79
2022-12-24T10:25:10.311Z,992.75
2022-12-24T10:26:10.293Z,992.77
2022-12-24T10:27:10.256Z,992.76
2022-12-24T10:28:10.256Z,992.73
2022-12-24T10:29:10.262Z,992.78
2022-12-24T10:30:15.035Z,992.74
2022-12-24T10:31:11.383Z,992.70
2022-12-24T10:32:10.207Z,992.73
2022-12-24T10:33:10.192Z,992.73
2022-12-24T10:34:10.211Z,992.73
2022-12-24T10:35:10.167Z,992.77
2022-12-24T10:36:12.414Z,992.72
2022-12-24T10:37:10.166Z,992.81
2022-12-24T10:38:10.147Z,992.79
2022-12-24T10:39:10.129Z,992.84
2022-12-24T10:40:10.112Z,992.81
2022-12-24T10:41:10.104Z,992.87
2022-12-24T10:42:10.113Z,992.89
2022-12-24T10:43:10.105Z,992.86
2022-12-24T10:44:10.068Z,992.84
2022-12-24T10:45:10.059Z,992.92
2022-12-24T10:46:10.223Z,992.90
2022-12-24T10:47:10.059Z,992.93
2022-12-24T10:48:10.054Z,992.94
2022-12-24T10:49:10.029Z,992.96
2022-12-24T10:50:10.005Z,992.97
2022-12-24T10:51:09.996Z,992.96
2022-12-24T10:52:10.029Z,992.99
2022-12-24T10:53:09.984Z,993.04
2022-12-24T10:54:09.970Z,993.04
2022-12-24T10:55:09.952Z,993.05
2022-12-24T10:56:09.933Z,993.06
2022-12-24T10:57:09.949Z,993.07
2022-12-24T10:58:09.913Z,993.04
2022-12-24T10:59:09.906Z,992.98
2022-12-24T11:00:09.886Z,993.05
2022-12-24T11:01:10.044Z,993.08
2022-12-24T11:02:10.091Z,993.14
2022-12-24T11:03:10.011Z,993.13
2022-12-24T11:04:09.897Z,993.09
2022-12-24T11:05:09.875Z,993.15
2022-12-24T11:06:09.862Z,993.11
2022-12-24T11:07:09.839Z,993.16
2022-12-24T11:08:09.825Z,993.17
2022-12-24T11:09:09.822Z,993.18
2022-12-24T11:10:09.776Z,993.23
2022-12-24T11:11:09.781Z,993.27
2022-12-24T11:12:09.897Z,993.24
2022-12-24T11:13:36.922Z,993.22
2022-12-24T11:14:10.949Z,993.21
2022-12-24T11:15:09.723Z,993.21
2022-12-24T11:16:09.748Z,993.20
2022-12-24T11:17:09.723Z,993.20
2022-12-24T11:18:09.683Z,993.14
2022-12-24T11:19:09.683Z,993.19
2022-12-24T11:20:09.664Z,993.20
2022-12-24T11:21:09.655Z,993.20
2022-12-24T11:22:09.674Z,993.19
2022-12-24T11:23:09.645Z,993.13
2022-12-24T11:24:09.635Z,993.24
2022-12-24T11:25:09.655Z,993.18
2022-12-24T11:26:09.625Z,993.26
2022-12-24T11:27:09.628Z,993.17
2022-12-24T11:28:09.577Z,993.16
2022-12-24T11:29:09.562Z,993.10
2022-12-24T11:30:11.945Z,993.10
2022-12-24T11:31:09.599Z,993.21
2022-12-24T11:32:09.552Z,993.21
2022-12-24T11:33:09.525Z,993.22
2022-12-24T11:34:09.517Z,993.26
2022-12-24T11:35:09.497Z,993.26
2022-12-24T11:36:09.486Z,993.29
2022-12-24T11:37:14.579Z,993.33
2022-12-24T11:38:09.472Z,993.33
2022-12-24T11:39:09.479Z,993.33
2022-12-24T11:40:09.463Z,993.37
2022-12-24T11:41:09.447Z,993.32
2022-12-24T11:42:09.444Z,993.28
2022-12-24T11:43:14.722Z,993.33
2022-12-24T11:44:10.433Z,993.30
2022-12-24T11:45:09.399Z,993.25
2022-12-24T11:46:09.412Z,993.19
2022-12-24T11:47:09.389Z,993.17
2022-12-24T11:48:09.370Z,993.21
2022-12-24T11:49:09.343Z,993.20
2022-12-24T11:50:18.042Z,993.19
2022-12-24T11:51:10.332Z,993.17
2022-12-24T11:52:09.337Z,993.20
2022-12-24T11:53:09.316Z,993.19
2022-12-24T11:54:09.299Z,993.18
2022-12-24T11:55:15.690Z,993.15
2022-12-24T11:56:10.569Z,993.15
2022-12-24T11:57:09.262Z,993.18
2022-12-24T11:58:09.316Z,993.16
2022-12-24T11:59:09.262Z,993.14
2022-12-24T12:00:09.214Z,993.15
2022-12-24T12:01:15.210Z,993.16
2022-12-24T12:02:10.192Z,993.18
2022-12-24T12:03:09.414Z,993.13
2022-12-24T12:04:09.242Z,993.14
2022-12-24T12:05:09.432Z,993.11
2022-12-24T12:06:09.160Z,993.15
2022-12-24T12:07:14.477Z,993.20
2022-12-24T12:08:10.147Z,993.19
2022-12-24T12:09:09.173Z,993.12
2022-12-24T12:10:09.141Z,993.12
2022-12-24T12:11:09.106Z,993.13
2022-12-24T12:12:09.117Z,993.12
2022-12-24T12:13:15.036Z,993.14
2022-12-24T12:14:10.060Z,993.15
2022-12-24T12:15:09.073Z,993.07
2022-12-24T12:16:09.127Z,993.18
2022-12-24T12:17:09.039Z,993.22
2022-12-24T12:18:09.021Z,993.19
2022-12-24T12:19:15.029Z,993.28
2022-12-24T12:20:10.031Z,993.25
2022-12-24T12:21:08.987Z,993.26
2022-12-24T12:22:08.996Z,993.34
2022-12-24T12:23:08.968Z,993.31
2022-12-24T12:24:08.981Z,993.31
2022-12-24T12:25:08.961Z,993.30
2022-12-24T12:26:08.966Z,993.30
2022-12-24T12:27:08.914Z,993.33
2022-12-24T12:28:08.934Z,993.33